EZY51BF EGBB-LFBD
Flight info
| Callsign | EZY51BF |
|---|---|
| Flight time | 1h 23m |
| Altitude | 33000 |
| Route | CPT N859 VAPID UN859 SOPIL DCT BALAN DCT LMG |
| Aircraft | A320/M-SDE3FGHIRWY/LB1 |
Departure
| Time | 2026-05-08 17:26 |
|---|---|
| Airport | Birmingham Airport (EGBB) |
Arrival
| Time | 2026-05-08 18:49 |
|---|---|
| Airport | Bordeaux–Mérignac Airport (LFBD) |
| Time | Latitude | Longitude | Altitude | Speed | Heading |
|---|---|---|---|---|---|
| 2026-05-08 17:09 | 52.45344 | -1.73697 | 321 ft | 0 kts | 146° |
| 2026-05-08 17:17 | 52.45349 | -1.73701 | 320 ft | 3 kts | 146° |
| 2026-05-08 17:17 | 52.45366 | -1.73721 | 320 ft | 4 kts | 148° |
| 2026-05-08 17:18 | 52.45390 | -1.73738 | 321 ft | 3 kts | 174° |
| 2026-05-08 17:18 | 52.45413 | -1.73732 | 322 ft | 3 kts | 225° |
| 2026-05-08 17:18 | 52.45412 | -1.73738 | 321 ft | 4 kts | 236° |
| 2026-05-08 17:18 | 52.45407 | -1.73751 | 321 ft | 0 kts | 236° |
| 2026-05-08 17:21 | 52.45400 | -1.73767 | 322 ft | 6 kts | 236° |
| 2026-05-08 17:21 | 52.45352 | -1.73883 | 323 ft | 15 kts | 236° |
| 2026-05-08 17:21 | 52.45309 | -1.74028 | 323 ft | 13 kts | 279° |
| 2026-05-08 17:21 | 52.45347 | -1.74157 | 322 ft | 12 kts | 297° |
| 2026-05-08 17:22 | 52.45381 | -1.74268 | 323 ft | 10 kts | 297° |
| 2026-05-08 17:22 | 52.45412 | -1.74368 | 323 ft | 9 kts | 296° |
| 2026-05-08 17:22 | 52.45443 | -1.74467 | 323 ft | 12 kts | 296° |
| 2026-05-08 17:22 | 52.45497 | -1.74599 | 323 ft | 16 kts | 324° |
| 2026-05-08 17:23 | 52.45610 | -1.74723 | 319 ft | 22 kts | 326° |
| 2026-05-08 17:23 | 52.45744 | -1.74872 | 311 ft | 24 kts | 326° |
| 2026-05-08 17:23 | 52.45885 | -1.75030 | 306 ft | 25 kts | 326° |
| 2026-05-08 17:23 | 52.46023 | -1.75183 | 305 ft | 23 kts | 326° |
| 2026-05-08 17:24 | 52.46154 | -1.75328 | 303 ft | 22 kts | 326° |
| 2026-05-08 17:24 | 52.46218 | -1.75411 | 304 ft | 14 kts | 298° |
| 2026-05-08 17:24 | 52.46194 | -1.75517 | 307 ft | 6 kts | 236° |
| 2026-05-08 17:24 | 52.46181 | -1.75550 | 311 ft | 3 kts | 236° |
| 2026-05-08 17:25 | 52.46158 | -1.75606 | 310 ft | 8 kts | 237° |
| 2026-05-08 17:25 | 52.46115 | -1.75610 | 310 ft | 9 kts | 153° |
| 2026-05-08 17:25 | 52.45953 | -1.75432 | 316 ft | 60 kts | 146° |
| 2026-05-08 17:25 | 52.45426 | -1.74849 | 323 ft | 122 kts | 146° |
| 2026-05-08 17:26 | 52.44598 | -1.73929 | 489 ft | 155 kts | 146° |
| 2026-05-08 17:26 | 52.43686 | -1.72936 | 1176 ft | 157 kts | 146° |
| 2026-05-08 17:26 | 52.42761 | -1.71906 | 1707 ft | 168 kts | 147° |
| 2026-05-08 17:26 | 52.41730 | -1.70749 | 1982 ft | 191 kts | 148° |
| 2026-05-08 17:27 | 52.40449 | -1.69858 | 2354 ft | 207 kts | 167° |
| 2026-05-08 17:27 | 52.39059 | -1.69310 | 3200 ft | 206 kts | 166° |
| 2026-05-08 17:27 | 52.37691 | -1.68576 | 3908 ft | 212 kts | 154° |
| 2026-05-08 17:27 | 52.36258 | -1.67573 | 4285 ft | 236 kts | 160° |
| 2026-05-08 17:28 | 52.34633 | -1.66698 | 4819 ft | 252 kts | 162° |
| 2026-05-08 17:28 | 52.32935 | -1.65852 | 5606 ft | 259 kts | 162° |
| 2026-05-08 17:28 | 52.31192 | -1.64990 | 6395 ft | 263 kts | 163° |
| 2026-05-08 17:28 | 52.29433 | -1.64103 | 7211 ft | 266 kts | 162° |
| 2026-05-08 17:29 | 52.27660 | -1.63186 | 8053 ft | 269 kts | 163° |
| 2026-05-08 17:29 | 52.25867 | -1.62241 | 8826 ft | 274 kts | 163° |
| 2026-05-08 17:29 | 52.24038 | -1.61271 | 9593 ft | 278 kts | 164° |
| 2026-05-08 17:29 | 52.22180 | -1.60286 | 10329 ft | 283 kts | 164° |
| 2026-05-08 17:30 | 52.20296 | -1.59285 | 11041 ft | 287 kts | 163° |
| 2026-05-08 17:30 | 52.18391 | -1.58272 | 11776 ft | 289 kts | 164° |
| 2026-05-08 17:30 | 52.16467 | -1.57245 | 12525 ft | 292 kts | 164° |
| 2026-05-08 17:30 | 52.14528 | -1.56213 | 13273 ft | 294 kts | 164° |
| 2026-05-08 17:31 | 52.12568 | -1.55175 | 13995 ft | 297 kts | 164° |
| 2026-05-08 17:31 | 52.10591 | -1.54125 | 14625 ft | 300 kts | 164° |
| 2026-05-08 17:31 | 52.08599 | -1.53066 | 15260 ft | 303 kts | 164° |
| 2026-05-08 17:31 | 52.06582 | -1.51998 | 15895 ft | 305 kts | 164° |
| 2026-05-08 17:32 | 52.04556 | -1.50928 | 16523 ft | 308 kts | 164° |
| 2026-05-08 17:32 | 52.02506 | -1.49844 | 17150 ft | 311 kts | 163° |
| 2026-05-08 17:32 | 52.00464 | -1.48762 | 17800 ft | 314 kts | 163° |
| 2026-05-08 17:32 | 51.98350 | -1.47639 | 18437 ft | 317 kts | 163° |
| 2026-05-08 17:33 | 51.96272 | -1.46541 | 18985 ft | 320 kts | 164° |
| 2026-05-08 17:33 | 51.94113 | -1.45403 | 19522 ft | 323 kts | 163° |
| 2026-05-08 17:33 | 51.91995 | -1.44284 | 20018 ft | 326 kts | 163° |
| 2026-05-08 17:33 | 51.89823 | -1.43138 | 20524 ft | 330 kts | 163° |
| 2026-05-08 17:34 | 51.87629 | -1.41984 | 21023 ft | 333 kts | 164° |
| 2026-05-08 17:34 | 51.85381 | -1.40803 | 21523 ft | 337 kts | 164° |
| 2026-05-08 17:34 | 51.83169 | -1.39650 | 22009 ft | 340 kts | 164° |
| 2026-05-08 17:34 | 51.80875 | -1.38460 | 22494 ft | 343 kts | 164° |
| 2026-05-08 17:35 | 51.78592 | -1.37272 | 22963 ft | 347 kts | 164° |
| 2026-05-08 17:35 | 51.76282 | -1.36063 | 23433 ft | 350 kts | 164° |
| 2026-05-08 17:35 | 51.73952 | -1.34842 | 23859 ft | 354 kts | 164° |
| 2026-05-08 17:35 | 51.71604 | -1.33612 | 24253 ft | 357 kts | 165° |
| 2026-05-08 17:36 | 51.69230 | -1.32375 | 24651 ft | 360 kts | 165° |
| 2026-05-08 17:36 | 51.66841 | -1.31133 | 25031 ft | 362 kts | 165° |
| 2026-05-08 17:36 | 51.64426 | -1.29876 | 25428 ft | 365 kts | 165° |
| 2026-05-08 17:36 | 51.61998 | -1.28615 | 25825 ft | 368 kts | 165° |
| 2026-05-08 17:37 | 51.59557 | -1.27351 | 26213 ft | 371 kts | 165° |
| 2026-05-08 17:37 | 51.57092 | -1.26078 | 26637 ft | 373 kts | 166° |
| 2026-05-08 17:37 | 51.54606 | -1.24799 | 27015 ft | 376 kts | 166° |
| 2026-05-08 17:37 | 51.52131 | -1.23299 | 27239 ft | 388 kts | 155° |
| 2026-05-08 17:38 | 51.49730 | -1.21194 | 27370 ft | 399 kts | 154° |
| 2026-05-08 17:38 | 51.47272 | -1.19004 | 27503 ft | 409 kts | 154° |
| 2026-05-08 17:38 | 51.44763 | -1.16756 | 27635 ft | 417 kts | 154° |
| 2026-05-08 17:38 | 51.42202 | -1.14459 | 27771 ft | 426 kts | 154° |
| 2026-05-08 17:39 | 51.39597 | -1.12123 | 27903 ft | 433 kts | 154° |
| 2026-05-08 17:39 | 51.36956 | -1.09757 | 28120 ft | 437 kts | 154° |
| 2026-05-08 17:39 | 51.34286 | -1.07376 | 28415 ft | 440 kts | 154° |
| 2026-05-08 17:39 | 51.31602 | -1.04986 | 28701 ft | 443 kts | 154° |
| 2026-05-08 17:40 | 51.28901 | -1.02585 | 28997 ft | 446 kts | 154° |
| 2026-05-08 17:40 | 51.26185 | -1.00171 | 29294 ft | 448 kts | 154° |
| 2026-05-08 17:40 | 51.23450 | -0.97741 | 29571 ft | 450 kts | 154° |
| 2026-05-08 17:40 | 51.20742 | -0.95340 | 29855 ft | 452 kts | 154° |
| 2026-05-08 17:41 | 51.17975 | -0.92897 | 30077 ft | 456 kts | 154° |
| 2026-05-08 17:41 | 51.15188 | -0.90441 | 30263 ft | 460 kts | 154° |
| 2026-05-08 17:41 | 51.12386 | -0.87967 | 30479 ft | 462 kts | 154° |
| 2026-05-08 17:41 | 51.09533 | -0.85446 | 30704 ft | 464 kts | 154° |
| 2026-05-08 17:42 | 51.06742 | -0.82988 | 30913 ft | 466 kts | 154° |
| 2026-05-08 17:42 | 51.03898 | -0.80496 | 31129 ft | 467 kts | 154° |
| 2026-05-08 17:42 | 51.01053 | -0.78007 | 31409 ft | 467 kts | 154° |
| 2026-05-08 17:42 | 50.98208 | -0.75521 | 31709 ft | 466 kts | 154° |
| 2026-05-08 17:43 | 50.95374 | -0.73047 | 32024 ft | 466 kts | 154° |
| 2026-05-08 17:43 | 50.92531 | -0.70567 | 32327 ft | 465 kts | 154° |
| 2026-05-08 17:43 | 50.89700 | -0.68096 | 32624 ft | 465 kts | 154° |
| 2026-05-08 17:43 | 50.86863 | -0.65624 | 32906 ft | 465 kts | 154° |
| 2026-05-08 17:44 | 50.84035 | -0.63164 | 33211 ft | 464 kts | 154° |
| 2026-05-08 17:44 | 50.81209 | -0.60711 | 33516 ft | 463 kts | 154° |
| 2026-05-08 17:44 | 50.78385 | -0.58264 | 33815 ft | 463 kts | 154° |
| 2026-05-08 17:44 | 50.75561 | -0.55819 | 34098 ft | 462 kts | 154° |
| 2026-05-08 17:45 | 50.72744 | -0.53382 | 34357 ft | 462 kts | 154° |
| 2026-05-08 17:45 | 50.69931 | -0.50953 | 34611 ft | 461 kts | 154° |
| 2026-05-08 17:45 | 50.67120 | -0.48533 | 34862 ft | 460 kts | 154° |
| 2026-05-08 17:45 | 50.64306 | -0.46114 | 35025 ft | 460 kts | 154° |
| 2026-05-08 17:46 | 50.58749 | -0.41342 | 35071 ft | 451 kts | 154° |
| 2026-05-08 17:46 | 50.53248 | -0.36627 | 35082 ft | 450 kts | 154° |
| 2026-05-08 17:47 | 50.47750 | -0.31928 | 35076 ft | 449 kts | 154° |
| 2026-05-08 17:47 | 50.43187 | -0.28043 | 35076 ft | 449 kts | 154° |
| 2026-05-08 17:48 | 50.36771 | -0.22580 | 35066 ft | 448 kts | 154° |
| 2026-05-08 17:48 | 50.31289 | -0.17934 | 35067 ft | 448 kts | 154° |
| 2026-05-08 17:49 | 50.25811 | -0.13309 | 35076 ft | 448 kts | 155° |
| 2026-05-08 17:49 | 50.20332 | -0.08687 | 35072 ft | 447 kts | 154° |
| 2026-05-08 17:50 | 50.14861 | -0.04076 | 35067 ft | 447 kts | 155° |
| 2026-05-08 17:50 | 50.09298 | 0.00153 | 35072 ft | 442 kts | 164° |
| 2026-05-08 17:51 | 50.03366 | 0.02623 | 35054 ft | 441 kts | 169° |
| 2026-05-08 17:51 | 49.97450 | 0.04951 | 35052 ft | 442 kts | 169° |
| 2026-05-08 17:52 | 49.91478 | 0.07295 | 35043 ft | 442 kts | 169° |
| 2026-05-08 17:53 | 49.82528 | 0.10804 | 35059 ft | 442 kts | 169° |
| 2026-05-08 17:53 | 49.76560 | 0.13145 | 35054 ft | 442 kts | 169° |
| 2026-05-08 17:54 | 49.70595 | 0.15462 | 35059 ft | 442 kts | 169° |
| 2026-05-08 17:54 | 49.64635 | 0.17791 | 35064 ft | 442 kts | 168° |
| 2026-05-08 17:55 | 49.58692 | 0.20190 | 35066 ft | 441 kts | 168° |
| 2026-05-08 17:55 | 49.52760 | 0.22599 | 35067 ft | 441 kts | 168° |
| 2026-05-08 17:56 | 49.46832 | 0.24988 | 35038 ft | 440 kts | 168° |
| 2026-05-08 17:56 | 49.40912 | 0.27357 | 35042 ft | 439 kts | 168° |
| 2026-05-08 17:57 | 49.35006 | 0.29703 | 35042 ft | 438 kts | 168° |
| 2026-05-08 17:57 | 49.29102 | 0.32058 | 35036 ft | 438 kts | 168° |
| 2026-05-08 17:58 | 49.23227 | 0.34528 | 35040 ft | 437 kts | 167° |
| 2026-05-08 17:58 | 49.17370 | 0.37042 | 35046 ft | 437 kts | 167° |
| 2026-05-08 17:59 | 49.11514 | 0.39512 | 35044 ft | 437 kts | 168° |
| 2026-05-08 17:59 | 49.05656 | 0.41958 | 35036 ft | 436 kts | 168° |
| 2026-05-08 18:00 | 49.00795 | 0.43987 | 35038 ft | 435 kts | 168° |
| 2026-05-08 18:00 | 48.91029 | 0.48072 | 35024 ft | 437 kts | 167° |
| 2026-05-08 18:01 | 48.85198 | 0.50488 | 35024 ft | 437 kts | 168° |
| 2026-05-08 18:01 | 48.79325 | 0.52914 | 35027 ft | 438 kts | 168° |
| 2026-05-08 18:02 | 48.74393 | 0.54907 | 35028 ft | 438 kts | 168° |
| 2026-05-08 18:02 | 48.67537 | 0.57562 | 35028 ft | 438 kts | 168° |
| 2026-05-08 18:03 | 48.61632 | 0.59842 | 35026 ft | 437 kts | 168° |
| 2026-05-08 18:03 | 48.55745 | 0.62138 | 35036 ft | 437 kts | 168° |
| 2026-05-08 18:04 | 48.49870 | 0.64449 | 35037 ft | 436 kts | 168° |
| 2026-05-08 18:04 | 48.44014 | 0.66833 | 35036 ft | 436 kts | 167° |
| 2026-05-08 18:05 | 48.38165 | 0.69245 | 35037 ft | 435 kts | 168° |
| 2026-05-08 18:05 | 48.32326 | 0.71626 | 35040 ft | 434 kts | 168° |
| 2026-05-08 18:06 | 48.27476 | 0.73580 | 35035 ft | 434 kts | 168° |
| 2026-05-08 18:06 | 48.21642 | 0.75906 | 35016 ft | 434 kts | 168° |
| 2026-05-08 18:07 | 48.15812 | 0.78192 | 35029 ft | 432 kts | 168° |
| 2026-05-08 18:07 | 48.09999 | 0.80466 | 35027 ft | 432 kts | 168° |
| 2026-05-08 18:08 | 48.04186 | 0.82742 | 35016 ft | 431 kts | 168° |
| 2026-05-08 18:08 | 47.98384 | 0.85005 | 35009 ft | 431 kts | 168° |
| 2026-05-08 18:09 | 47.92587 | 0.87272 | 34996 ft | 431 kts | 168° |
| 2026-05-08 18:09 | 47.86785 | 0.89530 | 34992 ft | 431 kts | 168° |
| 2026-05-08 18:10 | 47.80974 | 0.91783 | 34992 ft | 431 kts | 168° |
| 2026-05-08 18:10 | 47.75177 | 0.94033 | 34992 ft | 430 kts | 168° |
| 2026-05-08 18:11 | 47.69378 | 0.96275 | 34991 ft | 429 kts | 168° |
| 2026-05-08 18:11 | 47.63595 | 0.98505 | 34994 ft | 429 kts | 168° |
| 2026-05-08 18:12 | 47.57824 | 1.00717 | 34987 ft | 428 kts | 168° |
| 2026-05-08 18:12 | 47.52062 | 1.02923 | 34997 ft | 427 kts | 168° |
| 2026-05-08 18:13 | 47.46313 | 1.05126 | 34987 ft | 427 kts | 168° |
| 2026-05-08 18:13 | 47.40492 | 1.06399 | 34984 ft | 421 kts | 183° |
| 2026-05-08 18:14 | 47.34644 | 1.06247 | 34973 ft | 420 kts | 183° |
| 2026-05-08 18:14 | 47.28803 | 1.06098 | 34974 ft | 419 kts | 183° |
| 2026-05-08 18:15 | 47.22974 | 1.05966 | 34978 ft | 419 kts | 183° |
| 2026-05-08 18:15 | 47.17143 | 1.05824 | 34968 ft | 419 kts | 183° |
| 2026-05-08 18:16 | 47.11322 | 1.05694 | 34975 ft | 418 kts | 182° |
| 2026-05-08 18:16 | 47.05512 | 1.05573 | 34976 ft | 417 kts | 182° |
| 2026-05-08 18:17 | 46.99718 | 1.05416 | 34972 ft | 416 kts | 183° |
| 2026-05-08 18:17 | 46.93921 | 1.05154 | 34967 ft | 416 kts | 183° |
| 2026-05-08 18:18 | 46.88140 | 1.04880 | 34977 ft | 415 kts | 183° |
| 2026-05-08 18:18 | 46.82407 | 1.04489 | 34977 ft | 413 kts | 192° |
| 2026-05-08 18:19 | 46.79688 | 1.03247 | 34966 ft | 410 kts | 207° |
| 2026-05-08 18:19 | 46.77291 | 1.01004 | 34960 ft | 409 kts | 216° |
| 2026-05-08 18:19 | 46.72728 | 0.96026 | 34952 ft | 410 kts | 217° |
| 2026-05-08 18:20 | 46.68162 | 0.91023 | 34949 ft | 411 kts | 217° |
| 2026-05-08 18:20 | 46.63584 | 0.86035 | 34950 ft | 411 kts | 217° |
| 2026-05-08 18:21 | 46.59008 | 0.81077 | 34948 ft | 411 kts | 216° |
| 2026-05-08 18:21 | 46.54416 | 0.76111 | 34950 ft | 411 kts | 216° |
| 2026-05-08 18:22 | 46.49827 | 0.71144 | 34942 ft | 412 kts | 215° |
| 2026-05-08 18:22 | 46.45221 | 0.66190 | 34942 ft | 412 kts | 215° |
| 2026-05-08 18:23 | 46.40616 | 0.61255 | 34762 ft | 412 kts | 215° |
| 2026-05-08 18:23 | 46.38315 | 0.58789 | 34251 ft | 409 kts | 215° |
| 2026-05-08 18:23 | 46.36038 | 0.56346 | 33742 ft | 406 kts | 215° |
| 2026-05-08 18:24 | 46.33774 | 0.53919 | 33236 ft | 402 kts | 214° |
| 2026-05-08 18:24 | 46.31539 | 0.51525 | 32763 ft | 398 kts | 214° |
| 2026-05-08 18:24 | 46.29320 | 0.49153 | 32289 ft | 395 kts | 214° |
| 2026-05-08 18:24 | 46.27122 | 0.46806 | 31822 ft | 392 kts | 214° |
| 2026-05-08 18:25 | 46.24939 | 0.44475 | 31372 ft | 389 kts | 214° |
| 2026-05-08 18:25 | 46.22770 | 0.42165 | 30902 ft | 386 kts | 214° |
| 2026-05-08 18:25 | 46.20616 | 0.39870 | 30458 ft | 384 kts | 214° |
| 2026-05-08 18:25 | 46.18472 | 0.37592 | 30020 ft | 382 kts | 213° |
| 2026-05-08 18:26 | 46.16340 | 0.35331 | 29551 ft | 379 kts | 213° |
| 2026-05-08 18:26 | 46.14255 | 0.33123 | 29129 ft | 375 kts | 213° |
| 2026-05-08 18:26 | 46.12162 | 0.30906 | 28713 ft | 370 kts | 213° |
| 2026-05-08 18:26 | 46.10100 | 0.28721 | 28301 ft | 366 kts | 213° |
| 2026-05-08 18:27 | 46.08055 | 0.26556 | 27907 ft | 363 kts | 213° |
| 2026-05-08 18:27 | 46.06712 | 0.25134 | 27640 ft | 360 kts | 213° |
| 2026-05-08 18:27 | 46.04029 | 0.22300 | 27106 ft | 355 kts | 213° |
| 2026-05-08 18:27 | 46.02051 | 0.20213 | 26710 ft | 352 kts | 213° |
| 2026-05-08 18:28 | 46.00083 | 0.18135 | 26307 ft | 348 kts | 213° |
| 2026-05-08 18:28 | 45.98134 | 0.16083 | 25897 ft | 346 kts | 212° |
| 2026-05-08 18:28 | 45.96199 | 0.14052 | 25480 ft | 343 kts | 213° |
| 2026-05-08 18:28 | 45.94281 | 0.12037 | 25080 ft | 341 kts | 213° |
| 2026-05-08 18:29 | 45.92367 | 0.10029 | 24660 ft | 339 kts | 212° |
| 2026-05-08 18:29 | 45.90463 | 0.08035 | 24237 ft | 338 kts | 213° |
| 2026-05-08 18:29 | 45.88572 | 0.06055 | 23814 ft | 336 kts | 213° |
| 2026-05-08 18:29 | 45.86684 | 0.04079 | 23364 ft | 335 kts | 213° |
| 2026-05-08 18:30 | 45.84804 | 0.02114 | 22912 ft | 333 kts | 213° |
| 2026-05-08 18:30 | 45.82940 | 0.00164 | 22498 ft | 330 kts | 213° |
| 2026-05-08 18:30 | 45.81095 | -0.01768 | 22083 ft | 327 kts | 213° |
| 2026-05-08 18:30 | 45.79263 | -0.03684 | 21677 ft | 325 kts | 213° |
| 2026-05-08 18:31 | 45.77442 | -0.05586 | 21276 ft | 323 kts | 213° |
| 2026-05-08 18:31 | 45.75653 | -0.07450 | 20884 ft | 321 kts | 213° |
| 2026-05-08 18:31 | 45.73854 | -0.09324 | 20492 ft | 319 kts | 213° |
| 2026-05-08 18:31 | 45.72063 | -0.11190 | 20100 ft | 318 kts | 213° |
| 2026-05-08 18:32 | 45.70281 | -0.13048 | 19698 ft | 316 kts | 213° |
| 2026-05-08 18:32 | 45.68480 | -0.14921 | 19307 ft | 315 kts | 213° |
| 2026-05-08 18:32 | 45.66710 | -0.16755 | 18924 ft | 314 kts | 213° |
| 2026-05-08 18:32 | 45.64942 | -0.18585 | 18541 ft | 314 kts | 213° |
| 2026-05-08 18:33 | 45.63199 | -0.20390 | 18155 ft | 313 kts | 213° |
| 2026-05-08 18:33 | 45.61438 | -0.22213 | 17742 ft | 312 kts | 213° |
| 2026-05-08 18:33 | 45.59689 | -0.24022 | 17369 ft | 310 kts | 213° |
| 2026-05-08 18:33 | 45.57948 | -0.25822 | 17000 ft | 308 kts | 213° |
| 2026-05-08 18:34 | 45.56219 | -0.27607 | 16633 ft | 306 kts | 213° |
| 2026-05-08 18:34 | 45.54496 | -0.29386 | 16275 ft | 304 kts | 213° |
| 2026-05-08 18:34 | 45.52786 | -0.31150 | 15915 ft | 303 kts | 213° |
| 2026-05-08 18:34 | 45.51083 | -0.32902 | 15564 ft | 302 kts | 213° |
| 2026-05-08 18:35 | 45.49382 | -0.34652 | 15212 ft | 300 kts | 213° |
| 2026-05-08 18:35 | 45.47689 | -0.36392 | 14861 ft | 299 kts | 213° |
| 2026-05-08 18:35 | 45.46005 | -0.38124 | 14515 ft | 299 kts | 213° |
| 2026-05-08 18:35 | 45.44323 | -0.39853 | 14167 ft | 298 kts | 213° |
| 2026-05-08 18:36 | 45.42641 | -0.41581 | 13817 ft | 298 kts | 213° |
| 2026-05-08 18:36 | 45.40966 | -0.43302 | 13438 ft | 297 kts | 213° |
| 2026-05-08 18:36 | 45.39296 | -0.45013 | 13066 ft | 295 kts | 213° |
| 2026-05-08 18:36 | 45.37635 | -0.46712 | 12719 ft | 293 kts | 213° |
| 2026-05-08 18:37 | 45.35987 | -0.48397 | 12368 ft | 291 kts | 213° |
| 2026-05-08 18:37 | 45.34347 | -0.50075 | 12013 ft | 289 kts | 213° |
| 2026-05-08 18:37 | 45.32714 | -0.51743 | 11655 ft | 288 kts | 213° |
| 2026-05-08 18:37 | 45.31092 | -0.53398 | 11302 ft | 287 kts | 214° |
| 2026-05-08 18:38 | 45.29478 | -0.55048 | 10942 ft | 285 kts | 214° |
| 2026-05-08 18:38 | 45.27868 | -0.56692 | 10573 ft | 284 kts | 214° |
| 2026-05-08 18:38 | 45.26264 | -0.58327 | 10217 ft | 283 kts | 214° |
| 2026-05-08 18:38 | 45.24663 | -0.59956 | 9845 ft | 282 kts | 214° |
| 2026-05-08 18:39 | 45.23071 | -0.61575 | 9449 ft | 281 kts | 214° |
| 2026-05-08 18:39 | 45.21505 | -0.63170 | 9058 ft | 279 kts | 214° |
| 2026-05-08 18:39 | 45.19913 | -0.64792 | 8675 ft | 277 kts | 214° |
| 2026-05-08 18:39 | 45.18372 | -0.66361 | 8305 ft | 275 kts | 214° |
| 2026-05-08 18:40 | 45.16820 | -0.67937 | 7927 ft | 274 kts | 214° |
| 2026-05-08 18:40 | 45.15277 | -0.69503 | 7529 ft | 272 kts | 214° |
| 2026-05-08 18:40 | 45.13739 | -0.71061 | 7138 ft | 271 kts | 214° |
| 2026-05-08 18:40 | 45.12210 | -0.72611 | 6737 ft | 270 kts | 214° |
| 2026-05-08 18:41 | 45.10682 | -0.74155 | 6340 ft | 269 kts | 214° |
| 2026-05-08 18:41 | 45.09160 | -0.75690 | 5914 ft | 268 kts | 214° |
| 2026-05-08 18:41 | 45.07643 | -0.77220 | 5500 ft | 267 kts | 214° |
| 2026-05-08 18:41 | 45.06137 | -0.78741 | 5165 ft | 263 kts | 214° |
| 2026-05-08 18:42 | 45.04696 | -0.80200 | 5032 ft | 246 kts | 214° |
| 2026-05-08 18:42 | 45.03350 | -0.81566 | 4819 ft | 233 kts | 214° |
| 2026-05-08 18:42 | 45.02051 | -0.82881 | 4539 ft | 223 kts | 214° |
| 2026-05-08 18:42 | 45.00827 | -0.84115 | 4342 ft | 211 kts | 214° |
| 2026-05-08 18:43 | 44.99636 | -0.85310 | 4062 ft | 209 kts | 214° |
| 2026-05-08 18:43 | 44.98454 | -0.86494 | 3773 ft | 208 kts | 214° |
| 2026-05-08 18:43 | 44.97277 | -0.87675 | 3453 ft | 207 kts | 214° |
| 2026-05-08 18:43 | 44.96104 | -0.88850 | 3182 ft | 205 kts | 214° |
| 2026-05-08 18:44 | 44.94903 | -0.89950 | 3057 ft | 207 kts | 204° |
| 2026-05-08 18:44 | 44.93557 | -0.90627 | 3030 ft | 203 kts | 194° |
| 2026-05-08 18:44 | 44.92241 | -0.91158 | 3019 ft | 192 kts | 194° |
| 2026-05-08 18:44 | 44.90975 | -0.91675 | 3050 ft | 187 kts | 194° |
| 2026-05-08 18:45 | 44.89745 | -0.92179 | 3024 ft | 182 kts | 195° |
| 2026-05-08 18:45 | 44.88504 | -0.92488 | 2736 ft | 184 kts | 173° |
| 2026-05-08 18:45 | 44.87342 | -0.91742 | 2271 ft | 190 kts | 134° |
| 2026-05-08 18:45 | 44.86746 | -0.90158 | 2087 ft | 181 kts | 106° |
| 2026-05-08 18:46 | 44.86410 | -0.88487 | 2029 ft | 173 kts | 107° |
| 2026-05-08 18:46 | 44.86074 | -0.86867 | 2037 ft | 171 kts | 107° |
| 2026-05-08 18:46 | 44.85740 | -0.85266 | 2022 ft | 166 kts | 107° |
| 2026-05-08 18:46 | 44.85420 | -0.83731 | 2013 ft | 163 kts | 107° |
| 2026-05-08 18:47 | 44.85102 | -0.82214 | 1742 ft | 157 kts | 107° |
| 2026-05-08 18:47 | 44.84805 | -0.80802 | 1509 ft | 145 kts | 107° |
| 2026-05-08 18:47 | 44.84525 | -0.79465 | 1285 ft | 140 kts | 107° |
| 2026-05-08 18:47 | 44.84251 | -0.78163 | 1071 ft | 138 kts | 106° |
| 2026-05-08 18:48 | 44.83981 | -0.76871 | 861 ft | 136 kts | 106° |
| 2026-05-08 18:48 | 44.83713 | -0.75595 | 672 ft | 135 kts | 106° |
| 2026-05-08 18:48 | 44.83448 | -0.74330 | 445 ft | 134 kts | 106° |
| 2026-05-08 18:48 | 44.83187 | -0.73067 | 241 ft | 134 kts | 107° |
| 2026-05-08 18:49 | 44.83014 | -0.72254 | 177 ft | 123 kts | 105° |
| 2026-05-08 18:49 | 44.82814 | -0.71300 | 167 ft | 70 kts | 107° |
| 2026-05-08 18:49 | 44.82686 | -0.70692 | 170 ft | 42 kts | 107° |
| 2026-05-08 18:49 | 44.82610 | -0.70337 | 176 ft | 35 kts | 106° |
| 2026-05-08 18:50 | 44.82555 | -0.70074 | 176 ft | 14 kts | 106° |
| 2026-05-08 18:50 | 44.82568 | -0.69990 | 175 ft | 14 kts | 39° |
| 2026-05-08 18:50 | 44.82663 | -0.69949 | 174 ft | 14 kts | 15° |
| 2026-05-08 18:50 | 44.82731 | -0.69954 | 173 ft | 9 kts | 306° |
| 2026-05-08 18:51 | 44.82749 | -0.70031 | 173 ft | 8 kts | 286° |
| 2026-05-08 18:51 | 44.82763 | -0.70098 | 173 ft | 7 kts | 287° |
| 2026-05-08 18:51 | 44.82780 | -0.70167 | 173 ft | 9 kts | 300° |
| 2026-05-08 18:51 | 44.82833 | -0.70155 | 173 ft | 8 kts | 60° |
| 2026-05-08 18:52 | 44.82826 | -0.70084 | 173 ft | 8 kts | 107° |
| 2026-05-08 18:52 | 44.82832 | -0.70039 | 172 ft | 4 kts | 19° |
| 2026-05-08 18:52 | 44.82857 | -0.70033 | 172 ft | 3 kts | 15° |
| 2026-05-08 18:52 | 44.82870 | -0.70028 | 172 ft | 0 kts | 15° |
| 2026-05-08 19:01 | 44.82871 | -0.70028 | 172 ft | 0 kts | 16° |
| 2026-05-08 19:10 | 44.82870 | -0.70028 | 171 ft | 0 kts | 16° |
| 2026-05-08 19:24 | 44.82845 | -0.70035 | 169 ft | 4 kts | 355° |
| 2026-05-08 19:24 | 44.82821 | -0.70024 | 169 ft | 4 kts | 318° |
| 2026-05-08 19:24 | 44.82807 | -0.69995 | 169 ft | 3 kts | 287° |
| 2026-05-08 19:24 | 44.82806 | -0.69992 | 169 ft | 0 kts | 286° |
| 2026-05-08 19:27 | 44.82808 | -0.70004 | 169 ft | 4 kts | 287° |
| 2026-05-08 19:28 | 44.82819 | -0.70054 | 168 ft | 8 kts | 286° |
| 2026-05-08 19:28 | 44.82840 | -0.70156 | 168 ft | 14 kts | 286° |
| 2026-05-08 19:28 | 44.82869 | -0.70299 | 168 ft | 15 kts | 287° |
| 2026-05-08 19:28 | 44.82894 | -0.70430 | 168 ft | 12 kts | 266° |
| 2026-05-08 19:29 | 44.82857 | -0.70526 | 168 ft | 10 kts | 263° |
| 2026-05-08 19:29 | 44.82874 | -0.70615 | 168 ft | 9 kts | 287° |